This is the latest recevied weather packets stored in our database for station/object OM6ABF-11. If no packets are shown the sender has not sent any weather packets the latest 10 day(s).
| Time | Temp. | Humidity | Pressure | Rain* | Wind** | Luminosity | Snow |
|---|---|---|---|---|---|---|---|
| 1777859173 | 0.56° C | 82% | 1020.7 hPa | - | - | - | - |
| 1777858275 | 0.56° C | 81% | 1020.5 hPa | - | - | - | - |
| 1777857375 | 0.56° C | 81% | 1020.6 hPa | - | - | - | - |
| 1777856476 | 1.11° C | 80% | 1020.6 hPa | - | - | - | - |
| 1777855576 | 1.67° C | 78% | 1020.5 hPa | - | - | - | - |
| 1777854678 | 2.22° C | 77% | 1020.6 hPa | - | - | - | - |
| 1777853780 | 2.22° C | 77% | 1020.6 hPa | - | - | - | - |
| 1777852880 | 2.22° C | 77% | 1020.6 hPa | - | - | - | - |
| 1777851982 | 2.78° C | 75% | 1020.7 hPa | - | - | - | - |
| 1777851083 | 2.78° C | 73% | 1020.7 hPa | - | - | - | - |
| 1777850183 | 3.89° C | 72% | 1020.6 hPa | - | - | - | - |
| 1777849284 | 3.89° C | 70% | 1020.7 hPa | - | - | - | - |
| 1777848384 | 4.44° C | 68% | 1020.7 hPa | - | - | - | - |
| 1777847486 | 4.44° C | 67% | 1020.6 hPa | - | - | - | - |
| 1777846586 | 6.11° C | 62% | 1020.7 hPa | - | - | - | - |
| 1777845688 | 6.67° C | 61% | 1020.8 hPa | - | - | - | - |
| 1777844790 | 7.22° C | 59% | 1020.7 hPa | - | - | - | - |
| 1777843891 | 7.78° C | 57% | 1020.6 hPa | - | - | - | - |
| 1777842991 | 7.78° C | 56% | 1020.6 hPa | - | - | - | - |
| 1777842092 | 8.33° C | 55% | 1020.5 hPa | - | - | - | - |
| 1777841193 | 8.89° C | 53% | 1020.5 hPa | - | - | - | - |
| 1777840294 | 8.33° C | 53% | 1020.5 hPa | - | - | - | - |
| 1777839395 | 9.44° C | 51% | 1020.4 hPa | - | - | - | - |
| 1777838496 | 10° C | 48% | 1020.4 hPa | - | - | - | - |
| 1777837597 | 10° C | 49% | 1020.3 hPa | - | - | - | - |
* Rain since midnight (hover to see other rain measurements)
** Current wind speed in m/s (hover to see current wind gust speed)